Time;durP1;ratioP1;P1;durP2;ratioP2;P2;SDS_P1;SDS_P2;PMS_P1;PMS_P2;Temp;Humidity;BMP_temperature;BMP_pressure;BME280_temperature;BME280_humidity;BME280_pressure;Samples;Min_cycle;Max_cycle;Signal;HPM_P1;HPM_P2
2022/08/08 00:00:42;;;;;;;;;;;;;;;19.46;64.25;99682.84;1652639;86;20090;-66
2022/08/08 00:03:34;;;;;;;;;;;;;;;19.43;64.16;99683.28;1685868;85;20132;-65
2022/08/08 00:06:13;;;;;;;;;;;;;;;19.41;64.18;99689.44;1686209;85;20075;-65
2022/08/08 00:08:49;;;;;;;;;;;;;;;19.40;63.58;99690.47;1686131;85;20119;-66
2022/08/08 00:11:20;;;;;;;;;;;;;;;19.37;63.34;99691.42;1679298;85;20142;-65
2022/08/08 00:13:57;;;;;;;;;;;;;;;19.35;63.14;99692.14;1668096;85;20131;-65
2022/08/08 00:16:28;;;;;;;;;;;;;;;19.31;63.03;99685.04;1680049;83;20088;-66
2022/08/08 00:19:04;;;;;;;;;;;;;;;19.30;62.53;99680.68;1675129;85;21169;-66
2022/08/08 00:21:35;;;;;;;;;;;;;;;19.29;62.20;99683.09;1683712;85;20112;-67
2022/08/08 00:24:05;;;;;;;;;;;;;;;19.28;62.03;99685.48;1684482;85;20429;-65
2022/08/08 00:26:38;;;;;;;;;;;;;;;19.22;61.88;99680.13;1677861;85;20449;-65
2022/08/08 00:29:23;;;;;;;;;;;;;;;19.19;61.90;99682.73;1686159;85;20076;-65
2022/08/08 00:31:52;;;;;;;;;;;;;;;19.18;61.89;99677.58;1686120;85;22171;-65
2022/08/08 00:35:17;;;;;;;;;;;;;;;19.15;61.60;99676.16;1664562;85;20125;-65
2022/08/08 00:38:05;;;;;;;;;;;;;;;19.12;61.13;99675.24;1686288;85;20100;-66
2022/08/08 00:40:46;;;;;;;;;;;;;;;19.06;60.79;99671.55;1685855;84;20630;-65
2022/08/08 00:43:28;;;;;;;;;;;;;;;19.05;60.58;99678.52;1680650;83;20122;-66
2022/08/08 00:46:19;;;;;;;;;;;;;;;19.03;60.81;99681.97;1685213;85;21110;-66
2022/08/08 00:48:49;;;;;;;;;;;;;;;19.01;61.09;99678.12;1685837;85;20154;-67
2022/08/08 00:51:42;;;;;;;;;;;;;;;19.05;61.10;99685.27;1683847;84;20091;-68
2022/08/08 00:54:32;;;;;;;;;;;;;;;19.08;60.85;99675.39;1680827;85;20491;-64
2022/08/08 00:57:24;;;;;;;;;;;;;;;19.08;60.30;99680.78;1686257;84;20091;-65
2022/08/08 01:00:01;;;;;;;;;;;;;;;19.06;59.69;99685.55;1686066;85;22104;-66
2022/08/08 01:03:05;;;;;;;;;;;;;;;18.98;59.26;99682.60;1686112;85;20139;-68
2022/08/08 01:05:52;;;;;;;;;;;;;;;18.95;59.24;99683.59;1678235;85;20141;-67
2022/08/08 01:08:46;;;;;;;;;;;;;;;18.95;59.03;99679.00;1685193;85;20111;-66
2022/08/08 01:11:46;;;;;;;;;;;;;;;18.96;58.67;99682.52;1679129;85;20124;-66
2022/08/08 01:14:40;;;;;;;;;;;;;;;18.93;58.83;99677.56;1681312;85;21325;-67
2022/08/08 01:17:31;;;;;;;;;;;;;;;18.91;59.24;99683.70;1668886;83;20092;-66
2022/08/08 01:20:22;;;;;;;;;;;;;;;18.91;59.50;99679.14;1686091;85;20087;-67
2022/08/08 01:23:28;;;;;;;;;;;;;;;18.90;59.66;99680.17;1686150;85;20096;-66
2022/08/08 01:26:19;;;;;;;;;;;;;;;18.86;59.62;99677.62;1682307;85;20087;-67
2022/08/08 01:29:02;;;;;;;;;;;;;;;18.83;59.83;99670.49;1686085;85;21305;-66
2022/08/08 01:31:54;;;;;;;;;;;;;;;18.80;59.96;99675.80;1685966;84;20533;-69
2022/08/08 01:34:51;;;;;;;;;;;;;;;18.80;59.53;99676.31;1681592;85;20122;-67
2022/08/08 01:37:49;;;;;;;;;;;;;;;18.80;59.01;99676.31;1686132;85;20091;-66
2022/08/08 01:40:44;;;;;;;;;;;;;;;18.76;58.82;99677.81;1660555;85;20147;-67
2022/08/08 01:43:21;;;;;;;;;;;;;;;18.72;58.77;99669.88;1670483;85;21176;-67
2022/08/08 01:46:07;;;;;;;;;;;;;;;18.69;58.66;99679.22;1657482;85;20204;-68
2022/08/08 01:48:44;;;;;;;;;;;;;;;18.67;58.50;99677.23;1686122;83;20315;-66
2022/08/08 01:51:40;;;;;;;;;;;;;;;18.64;58.43;99691.14;1686252;85;20180;-67
2022/08/08 01:54:24;;;;;;;;;;;;;;;18.62;58.34;99680.27;1681365;85;20105;-68
2022/08/08 01:57:14;;;;;;;;;;;;;;;18.54;58.18;99685.95;1670353;85;21170;-68
2022/08/08 02:00:04;;;;;;;;;;;;;;;18.42;58.42;99688.45;1686106;85;20087;-68
2022/08/08 02:03:08;;;;;;;;;;;;;;;18.33;58.73;99692.42;1684819;84;20180;-70
2022/08/08 02:06:07;;;;;;;;;;;;;;;18.22;59.08;99695.30;1680418;85;20154;-69
2022/08/08 02:08:45;;;;;;;;;;;;;;;18.17;59.35;99699.67;1685599;85;20155;-67
2022/08/08 02:11:32;;;;;;;;;;;;;;;18.16;59.72;99699.36;1686370;85;21129;-67
2022/08/08 02:14:04;;;;;;;;;;;;;;;18.15;59.71;99702.56;1686002;85;20448;-68
2022/08/08 02:17:06;;;;;;;;;;;;;;;18.13;60.03;99707.34;1681898;83;20089;-66
2022/08/08 02:19:43;;;;;;;;;;;;;;;18.14;60.10;99705.48;1686247;85;20092;-67
2022/08/08 02:22:30;;;;;;;;;;;;;;;18.14;60.06;99710.34;1668347;85;20100;-68
2022/08/08 02:25:13;;;;;;;;;;;;;;;18.15;59.80;99711.98;1676442;85;21191;-69
2022/08/08 02:27:58;;;;;;;;;;;;;;;18.05;59.78;99712.95;1667304;85;20123;-69
2022/08/08 02:30:44;;;;;;;;;;;;;;;17.94;59.86;99716.30;1686278;85;20470;-69
2022/08/08 02:33:44;;;;;;;;;;;;;;;17.85;60.03;99710.86;1686463;85;20120;-71
2022/08/08 02:36:44;;;;;;;;;;;;;;;17.79;60.42;99712.52;1686178;85;20103;-70
2022/08/08 02:39:20;;;;;;;;;;;;;;;17.81;60.46;99719.03;1686276;85;21789;-68
2022/08/08 02:41:53;;;;;;;;;;;;;;;17.79;60.51;99722.45;1686197;85;20162;-68
2022/08/08 02:44:49;;;;;;;;;;;;;;;17.81;60.77;99722.55;1678312;84;20120;-68
2022/08/08 02:47:54;;;;;;;;;;;;;;;17.85;61.00;99717.59;1676986;83;20121;-66
2022/08/08 02:50:57;;;;;;;;;;;;;;;17.84;61.24;99709.19;1674026;85;20096;-70
2022/08/08 02:53:38;;;;;;;;;;;;;;;17.78;61.40;99704.67;1670091;85;22024;-68
2022/08/08 02:56:24;;;;;;;;;;;;;;;17.75;61.85;99711.27;1681890;84;20092;-67
2022/08/08 02:59:00;;;;;;;;;;;;;;;17.79;61.83;99717.08;1644243;85;20112;-70
2022/08/08 03:01:31;;;;;;;;;;;;;;;17.83;61.74;99719.13;1660139;84;20115;-68
2022/08/08 03:04:24;;;;;;;;;;;;;;;17.88;61.55;99726.59;1694039;84;20154;-67
2022/08/08 03:07:03;;;;;;;;;;;;;;;17.91;61.34;99722.64;1674829;84;21197;-67
2022/08/08 03:09:39;;;;;;;;;;;;;;;17.91;60.81;99722.64;1686887;84;20103;-68
2022/08/08 03:12:29;;;;;;;;;;;;;;;17.89;60.63;99718.80;1682967;84;20210;-68
2022/08/08 03:15:13;;;;;;;;;;;;;;;17.89;60.86;99722.84;1680777;84;20140;-67
2022/08/08 03:17:46;;;;;;;;;;;;;;;17.96;61.14;99733.60;1681977;83;20075;-68
2022/08/08 03:20:14;;;;;;;;;;;;;;;18.06;61.26;99740.71;1694082;84;20557;-68
2022/08/08 03:22:45;;;;;;;;;;;;;;;18.11;60.67;99730.96;1693987;84;20118;-69
2022/08/08 03:25:13;;;;;;;;;;;;;;;18.14;60.59;99741.31;1682497;84;20129;-67
2022/08/08 03:27:58;;;;;;;;;;;;;;;18.16;60.15;99737.05;1674947;84;20103;-68
2022/08/08 03:30:26;;;;;;;;;;;;;;;18.19;60.23;99742.84;1688755;84;20099;-66
2022/08/08 03:35:40;;;;;;;;;;;;;;;18.36;60.21;99737.27;1694022;84;20494;-68
2022/08/08 03:38:07;;;;;;;;;;;;;;;18.48;59.76;99737.47;1693939;84;20154;-68
2022/08/08 03:40:34;;;;;;;;;;;;;;;18.52;59.52;99740.54;1693519;84;20154;-67
2022/08/08 03:43:09;;;;;;;;;;;;;;;18.51;59.64;99738.36;1688848;84;20110;-69
2022/08/08 03:45:37;;;;;;;;;;;;;;;18.47;59.58;99737.98;1681915;84;21095;-69
2022/08/08 03:48:08;;;;;;;;;;;;;;;18.40;59.68;99735.82;1693933;83;20112;-66
2022/08/08 03:50:43;;;;;;;;;;;;;;;18.32;60.06;99740.10;1694044;84;20204;-66
2022/08/08 03:53:11;;;;;;;;;;;;;;;18.36;60.11;99740.48;1692025;84;20098;-68
2022/08/08 03:55:39;;;;;;;;;;;;;;;18.40;59.90;99740.38;1693964;84;20128;-67
2022/08/08 03:58:07;;;;;;;;;;;;;;;18.36;60.12;99741.31;1693860;84;21160;-67
2022/08/08 04:00:34;;;;;;;;;;;;;;;18.36;60.17;99738.62;1693805;84;20087;-67
2022/08/08 04:03:06;;;;;;;;;;;;;;;18.39;60.28;99735.50;1682742;84;20154;-66
2022/08/08 04:05:35;;;;;;;;;;;;;;;18.50;60.34;99735.38;1686401;85;20087;-68
2022/08/08 04:08:07;;;;;;;;;;;;;;;18.65;60.23;99735.08;1685915;85;20167;-69
2022/08/08 04:10:34;;;;;;;;;;;;;;;18.82;59.95;99727.61;1686162;85;21148;-68
2022/08/08 04:13:03;;;;;;;;;;;;;;;18.97;59.51;99733.55;1684602;85;20539;-67
2022/08/08 04:15:30;;;;;;;;;;;;;;;19.11;59.23;99734.25;1686232;84;20154;-66
2022/08/08 04:17:57;;;;;;;;;;;;;;;19.45;59.08;99735.14;1684726;83;20135;-66
2022/08/08 04:20:24;;;;;;;;;;;;;;;19.95;58.37;99730.48;1686203;85;20124;-66
2022/08/08 04:22:51;;;;;;;;;;;;;;;20.49;56.90;99733.70;1684415;85;21156;-66
2022/08/08 04:25:18;;;;;;;;;;;;;;;20.99;55.45;99734.79;1680561;85;20123;-66
2022/08/08 04:27:44;;;;;;;;;;;;;;;21.51;54.31;99736.11;1686252;85;20381;-66
2022/08/08 04:30:11;;;;;;;;;;;;;;;22.10;53.05;99726.11;1686119;85;20108;-66
2022/08/08 04:32:40;;;;;;;;;;;;;;;22.70;51.94;99730.07;1686161;85;20097;-66
2022/08/08 04:35:07;;;;;;;;;;;;;;;23.19;50.52;99732.56;1683603;85;21171;-67
2022/08/08 04:37:35;;;;;;;;;;;;;;;23.59;49.32;99725.64;1686126;85;20642;-65
2022/08/08 04:40:05;;;;;;;;;;;;;;;23.99;48.44;99726.73;1684905;85;20417;-66
2022/08/08 04:42:32;;;;;;;;;;;;;;;24.46;47.81;99733.88;1664586;85;20174;-67
2022/08/08 04:45:00;;;;;;;;;;;;;;;24.81;46.39;99735.69;1686287;85;20100;-66
2022/08/08 04:47:26;;;;;;;;;;;;;;;24.99;45.41;99737.22;1686239;83;21178;-67
2022/08/08 04:49:54;;;;;;;;;;;;;;;25.24;45.12;99738.80;1686092;85;20076;-67
2022/08/08 04:52:21;;;;;;;;;;;;;;;25.62;44.84;99741.33;1673978;85;20102;-68
2022/08/08 04:54:47;;;;;;;;;;;;;;;26.14;44.03;99737.84;1685899;85;20473;-68
2022/08/08 04:57:14;;;;;;;;;;;;;;;26.72;43.19;99738.89;1686165;85;20116;-68
2022/08/08 04:59:42;;;;;;;;;;;;;;;27.22;41.97;99738.16;1686395;85;21155;-67
2022/08/08 05:02:09;;;;;;;;;;;;;;;27.38;41.28;99739.80;1686024;84;20087;-66
2022/08/08 05:04:36;;;;;;;;;;;;;;;27.27;40.81;99740.09;1688883;84;20164;-67
2022/08/08 05:07:03;;;;;;;;;;;;;;;26.79;41.16;99746.84;1678043;84;20100;-67
2022/08/08 05:09:30;;;;;;;;;;;;;;;26.22;42.14;99739.53;1677427;84;20101;-66
2022/08/08 05:11:57;;;;;;;;;;;;;;;25.83;43.21;99745.00;1681882;84;21161;-66
2022/08/08 05:14:26;;;;;;;;;;;;;;;25.69;43.72;99745.17;1667875;84;20093;-68
2022/08/08 05:16:54;;;;;;;;;;;;;;;25.70;44.04;99745.46;1680963;83;20429;-68
2022/08/08 05:19:21;;;;;;;;;;;;;;;26.09;43.97;99747.33;1693782;84;20131;-66
2022/08/08 05:21:48;;;;;;;;;;;;;;;26.82;43.30;99740.84;1682104;84;20154;-65
2022/08/08 05:24:15;;;;;;;;;;;;;;;27.48;41.82;99745.83;1693880;84;21153;-67
2022/08/08 05:26:45;;;;;;;;;;;;;;;27.76;40.98;99745.28;1674045;84;20452;-68
2022/08/08 05:29:10;;;;;;;;;;;;;;;27.77;41.00;99752.36;1678954;84;20435;-68
2022/08/08 05:31:37;;;;;;;;;;;;;;;27.63;41.04;99755.41;1678615;84;20167;-68
2022/08/08 05:34:05;;;;;;;;;;;;;;;27.61;41.58;99756.77;1693662;84;20127;-69
2022/08/08 05:36:33;;;;;;;;;;;;;;;27.69;41.47;99757.59;1693782;84;21161;-67
2022/08/08 05:39:00;;;;;;;;;;;;;;;27.63;41.50;99762.23;1693706;84;20119;-68
2022/08/08 05:41:26;;;;;;;;;;;;;;;27.64;41.68;99761.12;1683631;84;20457;-68
2022/08/08 05:43:59;;;;;;;;;;;;;;;27.68;41.86;99758.67;1685330;84;20178;-68
2022/08/08 05:46:25;;;;;;;;;;;;;;;27.88;41.64;99762.73;1693303;83;20434;-69
2022/08/08 05:48:52;;;;;;;;;;;;;;;27.89;41.64;99767.94;1693897;84;21111;-68
2022/08/08 05:51:21;;;;;;;;;;;;;;;28.36;41.08;99770.84;1688412;84;20449;-69
2022/08/08 05:53:49;;;;;;;;;;;;;;;28.99;40.22;99767.82;1678774;84;20093;-70
2022/08/08 05:56:15;;;;;;;;;;;;;;;29.38;39.60;99766.48;1684713;84;20460;-73
2022/08/08 05:58:43;;;;;;;;;;;;;;;29.61;39.29;99764.36;1693320;84;20484;-71
2022/08/08 06:01:10;;;;;;;;;;;;;;;29.99;39.03;99760.70;1693287;84;21163;-71
2022/08/08 06:03:36;;;;;;;;;;;;;;;30.30;37.81;99766.11;1636745;86;20146;-70
2022/08/08 06:06:05;;;;;;;;;;;;;;;29.98;38.22;99757.72;1664843;86;20151;-72
2022/08/08 06:08:43;;;;;;;;;;;;;;;29.55;38.36;99769.61;1658389;86;20093;-73
2022/08/08 06:11:11;;;;;;;;;;;;;;;28.90;39.09;99769.51;1658720;85;20207;-71
2022/08/08 06:13:38;;;;;;;;;;;;;;;28.31;39.86;99761.29;1669183;86;21788;-72
2022/08/08 06:16:05;;;;;;;;;;;;;;;27.86;40.62;99766.30;1669076;86;20127;-69
2022/08/08 06:18:45;;;;;;;;;;;;;;;27.48;41.18;99771.24;1667527;84;20099;-72
2022/08/08 06:21:12;;;;;;;;;;;;;;;27.21;41.72;99771.20;1663901;86;20187;-72
2022/08/08 06:23:39;;;;;;;;;;;;;;;26.81;42.23;99771.41;1669177;86;20147;-70
2022/08/08 06:26:08;;;;;;;;;;;;;;;26.30;43.54;99766.30;1669345;86;21143;-71
2022/08/08 06:28:52;;;;;;;;;;;;;;;25.84;44.70;99775.81;1669190;85;20119;-70
2022/08/08 06:31:21;;;;;;;;;;;;;;;25.45;45.75;99773.82;1664410;86;20169;-70
2022/08/08 06:33:57;;;;;;;;;;;;;;;25.10;46.04;99772.45;1649146;86;20498;-72
2022/08/08 06:36:41;;;;;;;;;;;;;;;24.91;46.51;99769.80;1650829;86;20140;-71
2022/08/08 06:42:19;;;;;;;;;;;;;;;24.64;47.73;99777.06;1654931;84;20506;-71
2022/08/08 06:45:04;;;;;;;;;;;;;;;25.06;47.46;99771.84;1652989;86;20488;-73
2022/08/08 06:48:00;;;;;;;;;;;;;;;25.55;45.84;99771.23;1658431;84;20178;-71
2022/08/08 06:50:40;;;;;;;;;;;;;;;25.60;45.02;99776.16;1659890;84;20103;-73
2022/08/08 06:53:08;;;;;;;;;;;;;;;25.67;44.61;99779.50;1657602;86;21162;-73
2022/08/08 06:55:37;;;;;;;;;;;;;;;26.03;44.67;99777.00;1659884;86;20453;-72
2022/08/08 06:58:03;;;;;;;;;;;;;;;26.89;43.08;99776.88;1658149;86;20140;-72
2022/08/08 07:00:31;;;;;;;;;;;;;;;27.39;42.34;99772.04;1665921;86;20152;-72
2022/08/08 07:02:59;;;;;;;;;;;;;;;27.99;41.39;99771.19;1663825;84;20139;-73
2022/08/08 07:05:26;;;;;;;;;;;;;;;28.13;40.02;99773.09;1654462;86;21145;-71
2022/08/08 07:08:10;;;;;;;;;;;;;;;28.20;40.05;99772.81;1657840;86;20185;-72
2022/08/08 07:10:38;;;;;;;;;;;;;;;28.01;39.66;99769.85;1664593;86;20438;-71
2022/08/08 07:13:06;;;;;;;;;;;;;;;27.48;40.36;99775.88;1664544;85;20108;-71
2022/08/08 07:15:47;;;;;;;;;;;;;;;26.93;41.52;99784.25;1655714;86;20126;-71
2022/08/08 07:18:17;;;;;;;;;;;;;;;26.46;42.22;99780.81;1643270;85;21105;-71
2022/08/08 07:20:44;;;;;;;;;;;;;;;26.14;42.73;99788.28;1663166;86;20221;-69
2022/08/08 07:23:18;;;;;;;;;;;;;;;25.81;43.33;99792.14;1641045;86;20155;-71
2022/08/08 07:25:45;;;;;;;;;;;;;;;25.56;43.90;99795.48;1663063;85;20314;-71
2022/08/08 07:28:21;;;;;;;;;;;;;;;25.64;44.17;99801.81;1663615;85;20108;-69
2022/08/08 07:30:44;;;;;;;;;;;;;;;25.74;43.40;99795.08;1663283;85;21171;-70
2022/08/08 07:33:14;;;;;;;;;;;;;;;25.76;43.45;99796.98;1663996;86;20087;-71
2022/08/08 07:35:40;;;;;;;;;;;;;;;25.76;43.20;99804.34;1663934;86;20176;-72
2022/08/08 07:38:08;;;;;;;;;;;;;;;25.73;43.67;99797.51;1663981;86;20100;-73
2022/08/08 07:40:37;;;;;;;;;;;;;;;25.83;43.33;99791.87;1663873;85;20104;-71
2022/08/08 07:43:05;;;;;;;;;;;;;;;25.96;42.75;99793.59;1663461;85;21176;-73
2022/08/08 07:45:32;;;;;;;;;;;;;;;26.26;42.70;99792.97;1664442;86;20079;-71
2022/08/08 07:47:58;;;;;;;;;;;;;;;26.75;42.21;99791.55;1664012;85;20174;-76
2022/08/08 07:50:25;;;;;;;;;;;;;;;27.15;40.42;99785.94;1664510;86;20099;-72
2022/08/08 07:52:58;;;;;;;;;;;;;;;27.87;39.56;99776.15;1664548;86;20092;-73
2022/08/08 07:55:29;;;;;;;;;;;;;;;29.51;37.01;99772.67;1652075;85;21155;-73
2022/08/08 07:58:07;;;;;;;;;;;;;;;30.43;33.26;99779.16;1664447;86;20088;-73
2022/08/08 08:00:51;;;;;;;;;;;;;;;30.11;33.67;99780.34;1663569;86;20115;-72
2022/08/08 08:03:42;;;;;;;;;;;;;;;30.73;32.73;99776.59;1664433;84;20095;-74
2022/08/08 08:06:10;;;;;;;;;;;;;;;31.35;31.51;99785.59;1664522;86;20130;-72
2022/08/08 08:08:43;;;;;;;;;;;;;;;31.76;30.28;99779.14;1654910;86;21821;-71
2022/08/08 08:11:14;;;;;;;;;;;;;;;32.35;29.64;99772.02;1651318;85;20475;-73
2022/08/08 08:14:05;;;;;;;;;;;;;;;33.36;29.07;99772.55;1663486;86;20215;-72
2022/08/08 08:16:36;;;;;;;;;;;;;;;34.47;26.37;99771.80;1657030;85;20100;-71
2022/08/08 08:19:10;;;;;;;;;;;;;;;35.14;25.67;99757.67;1664501;86;20124;-71
2022/08/08 08:21:44;;;;;;;;;;;;;;;35.72;25.03;99764.05;1664487;86;21176;-74
2022/08/08 08:24:12;;;;;;;;;;;;;;;36.33;24.54;99771.83;1664121;86;20084;-73
2022/08/08 08:26:39;;;;;;;;;;;;;;;37.06;23.33;99754.36;1660338;86;20113;-74
2022/08/08 08:29:05;;;;;;;;;;;;;;;37.28;23.02;99747.66;1644123;86;20079;-74
2022/08/08 08:31:32;;;;;;;;;;;;;;;37.48;22.70;99755.97;1650964;86;20127;-72
2022/08/08 08:33:59;;;;;;;;;;;;;;;37.56;22.10;99750.91;1645266;85;22003;-73
2022/08/08 08:36:25;;;;;;;;;;;;;;;36.49;22.50;99749.94;1642923;86;20076;-73
2022/08/08 08:38:52;;;;;;;;;;;;;;;35.17;23.85;99748.73;1649648;85;20091;-73
2022/08/08 08:41:26;;;;;;;;;;;;;;;34.52;24.48;99756.46;1658644;86;20514;-72
2022/08/08 08:43:53;;;;;;;;;;;;;;;34.68;24.66;99760.44;1632605;86;20164;-74
2022/08/08 08:46:19;;;;;;;;;;;;;;;34.74;24.26;99755.00;1645041;85;21140;-72
2022/08/08 08:48:46;;;;;;;;;;;;;;;34.88;24.30;99746.58;1649816;86;20094;-73
2022/08/08 08:51:13;;;;;;;;;;;;;;;35.04;24.62;99751.05;1661280;86;20437;-73
2022/08/08 08:53:44;;;;;;;;;;;;;;;34.77;24.80;99759.08;1660275;85;20628;-73
2022/08/08 08:56:13;;;;;;;;;;;;;;;34.15;25.27;99757.02;1651441;86;20079;-73
2022/08/08 08:58:43;;;;;;;;;;;;;;;33.69;25.72;99767.60;1643626;86;21172;-75
2022/08/08 09:01:13;;;;;;;;;;;;;;;34.23;24.83;99767.28;1658266;86;20122;-74
2022/08/08 09:03:41;;;;;;;;;;;;;;;35.14;24.60;99757.67;1646981;84;20143;-74
2022/08/08 09:06:09;;;;;;;;;;;;;;;36.07;23.87;99759.23;1688544;84;20910;-73
2022/08/08 09:08:39;;;;;;;;;;;;;;;36.85;22.92;99760.45;1677859;84;20118;-73
2022/08/08 09:11:06;;;;;;;;;;;;;;;36.93;22.13;99767.32;1678406;84;21797;-72
2022/08/08 09:13:34;;;;;;;;;;;;;;;36.20;22.80;99771.48;1666008;84;38064;-72
2022/08/08 09:16:01;;;;;;;;;;;;;;;35.36;24.17;99769.92;1683213;84;20103;-72
2022/08/08 09:18:29;;;;;;;;;;;;;;;35.02;24.73;99769.89;1670293;83;20201;-72
2022/08/08 09:20:56;;;;;;;;;;;;;;;34.77;25.27;99774.27;1682344;84;20099;-71
2022/08/08 09:23:23;;;;;;;;;;;;;;;34.28;25.41;99770.45;1672633;84;21592;-72
2022/08/08 09:25:53;;;;;;;;;;;;;;;33.27;26.46;99766.97;1681716;84;20091;-71
2022/08/08 09:28:20;;;;;;;;;;;;;;;32.59;27.17;99770.45;1687207;84;20123;-72
2022/08/08 09:30:47;;;;;;;;;;;;;;;31.80;27.92;99771.12;1678902;84;20500;-72
2022/08/08 09:33:15;;;;;;;;;;;;;;;31.23;28.58;99768.20;1693499;84;20115;-71
2022/08/08 09:35:44;;;;;;;;;;;;;;;30.79;29.40;99769.90;1693562;83;21140;-72
2022/08/08 09:38:11;;;;;;;;;;;;;;;30.25;30.49;99770.84;1687399;84;20138;-72
2022/08/08 09:40:37;;;;;;;;;;;;;;;30.03;30.76;99765.89;1689884;83;20101;-73
2022/08/08 09:43:19;;;;;;;;;;;;;;;29.94;30.87;99758.84;1693850;84;20444;-73
2022/08/08 09:45:48;;;;;;;;;;;;;;;29.80;30.88;99752.97;1689605;84;20138;-73
2022/08/08 09:48:16;;;;;;;;;;;;;;;29.58;31.30;99751.22;1693879;83;22143;-71
2022/08/08 09:50:44;;;;;;;;;;;;;;;29.30;32.06;99749.55;1693816;84;20135;-72
2022/08/08 09:53:11;;;;;;;;;;;;;;;29.18;32.67;99746.86;1692101;84;20162;-73
2022/08/08 09:55:37;;;;;;;;;;;;;;;29.13;32.22;99751.83;1683490;84;20218;-72
2022/08/08 09:58:09;;;;;;;;;;;;;;;29.11;32.37;99754.04;1693953;84;20449;-72
2022/08/08 10:00:36;;;;;;;;;;;;;;;29.06;32.39;99754.08;1676200;84;21134;-73
2022/08/08 10:03:03;;;;;;;;;;;;;;;29.03;32.47;99766.97;1679988;84;20148;-74
2022/08/08 10:05:34;;;;;;;;;;;;;;;29.02;31.91;99772.73;1663801;86;20143;-73
2022/08/08 10:08:00;;;;;;;;;;;;;;;29.00;32.11;99774.92;1641372;86;20114;-73
2022/08/08 10:10:40;;;;;;;;;;;;;;;28.98;32.02;99772.47;1629918;87;20422;-73
2022/08/08 10:13:24;;;;;;;;;;;;;;;29.14;32.15;99772.65;1637902;87;21575;-73
2022/08/08 10:15:52;;;;;;;;;;;;;;;29.24;31.19;99767.13;1656906;86;20100;-71
2022/08/08 10:18:32;;;;;;;;;;;;;;;29.23;31.33;99759.17;1651990;85;20101;-71
2022/08/08 10:21:04;;;;;;;;;;;;;;;29.09;31.66;99758.17;1627625;88;20120;-71
2022/08/08 10:23:42;;;;;;;;;;;;;;;28.94;32.00;99756.33;1649366;86;20180;-72
2022/08/08 10:26:11;;;;;;;;;;;;;;;28.78;32.46;99761.66;1657473;86;21625;-71
2022/08/08 10:28:37;;;;;;;;;;;;;;;28.72;32.90;99754.56;1660063;86;20088;-68
2022/08/08 10:33:51;;;;;;;;;;;;;;;28.69;32.75;99751.02;1664415;86;20147;-71
2022/08/08 10:36:17;;;;;;;;;;;;;;;28.71;32.65;99753.73;1655481;86;20217;-70
2022/08/08 10:38:44;;;;;;;;;;;;;;;28.79;32.93;99748.21;1646153;86;21162;-72
2022/08/08 10:41:14;;;;;;;;;;;;;;;29.00;33.35;99754.38;1663910;86;20123;-71
2022/08/08 10:43:40;;;;;;;;;;;;;;;29.12;33.20;99741.17;1638861;86;20125;-72
2022/08/08 10:48:44;;;;;;;;;;;;;;;29.18;32.99;99731.24;1631157;86;20458;-72
2022/08/08 10:51:12;;;;;;;;;;;;;;;29.28;32.44;99730.36;1664627;85;21151;-72
2022/08/08 10:53:38;;;;;;;;;;;;;;;29.19;32.41;99737.00;1661962;85;20338;-73
2022/08/08 10:56:04;;;;;;;;;;;;;;;29.18;32.88;99737.27;1664551;86;20075;-72
2022/08/08 10:58:31;;;;;;;;;;;;;;;29.23;32.68;99735.89;1659700;86;20185;-72
2022/08/08 11:00:57;;;;;;;;;;;;;;;29.21;32.11;99724.41;1664532;86;20091;-72
2022/08/08 11:03:24;;;;;;;;;;;;;;;29.19;32.56;99716.45;1663951;84;21094;-74
2022/08/08 11:05:51;;;;;;;;;;;;;;;29.22;32.53;99712.36;1664662;86;20104;-71
2022/08/08 11:08:21;;;;;;;;;;;;;;;29.21;31.92;99713.45;1657438;85;20455;-70
2022/08/08 11:10:48;;;;;;;;;;;;;;;29.15;31.75;99715.38;1654185;86;20144;-74
2022/08/08 11:13:20;;;;;;;;;;;;;;;29.09;31.32;99716.54;1657502;86;20149;-73
2022/08/08 11:15:48;;;;;;;;;;;;;;;29.12;31.15;99713.20;1652723;86;21163;-70
2022/08/08 11:18:14;;;;;;;;;;;;;;;29.21;31.07;99701.13;1647907;85;20146;-73
2022/08/08 11:20:41;;;;;;;;;;;;;;;29.21;31.14;99710.16;1664495;86;20104;-71
2022/08/08 11:23:07;;;;;;;;;;;;;;;29.15;30.90;99707.16;1657851;86;20114;-70
2022/08/08 11:25:34;;;;;;;;;;;;;;;29.14;30.65;99708.28;1654192;86;20112;-71
2022/08/08 11:28:00;;;;;;;;;;;;;;;29.16;30.37;99707.44;1656598;86;21850;-71
2022/08/08 11:30:27;;;;;;;;;;;;;;;29.24;30.80;99704.11;1658506;85;20182;-72
2022/08/08 11:32:56;;;;;;;;;;;;;;;29.35;29.81;99698.00;1668470;85;20102;-72
2022/08/08 11:35:24;;;;;;;;;;;;;;;29.33;29.69;99705.70;1642925;86;20206;-70
2022/08/08 11:37:50;;;;;;;;;;;;;;;29.31;29.49;99694.18;1664110;86;20143;-71
2022/08/08 11:40:16;;;;;;;;;;;;;;;29.26;29.93;99694.23;1663335;86;22162;-71
2022/08/08 11:42:43;;;;;;;;;;;;;;;29.25;30.09;99697.52;1664077;85;20169;-72
2022/08/08 11:45:10;;;;;;;;;;;;;;;29.14;30.57;99700.61;1664091;86;20088;-74
2022/08/08 11:47:38;;;;;;;;;;;;;;;28.97;30.82;99706.48;1653524;85;20231;-71
2022/08/08 11:50:07;;;;;;;;;;;;;;;28.81;30.78;99709.05;1664051;85;20458;-71
2022/08/08 11:52:34;;;;;;;;;;;;;;;28.66;31.24;99710.52;1657204;86;21791;-73
2022/08/08 11:55:00;;;;;;;;;;;;;;;28.61;31.37;99706.41;1659545;86;20088;-72
2022/08/08 11:57:28;;;;;;;;;;;;;;;28.60;31.48;99709.69;1652396;86;20103;-73
2022/08/08 11:59:57;;;;;;;;;;;;;;;28.65;31.36;99704.80;1657735;86;20088;-71
2022/08/08 12:02:25;;;;;;;;;;;;;;;28.70;31.37;99702.84;1664496;86;20144;-71
2022/08/08 12:05:05;;;;;;;;;;;;;;;28.72;31.69;99697.91;1664553;84;21143;-73
2022/08/08 12:07:44;;;;;;;;;;;;;;;28.73;31.79;99702.83;1661629;86;20104;-72
2022/08/08 12:10:16;;;;;;;;;;;;;;;28.69;31.90;99692.16;1664471;86;20083;-73
2022/08/08 12:12:43;;;;;;;;;;;;;;;28.60;31.82;99697.95;1664238;86;20346;-72
2022/08/08 12:15:10;;;;;;;;;;;;;;;28.48;32.07;99701.02;1664456;85;20088;-70
2022/08/08 12:17:38;;;;;;;;;;;;;;;28.36;32.33;99690.14;1661510;85;21174;-71
2022/08/08 12:20:05;;;;;;;;;;;;;;;28.37;32.75;99690.39;1664464;86;20185;-71
2022/08/08 12:22:32;;;;;;;;;;;;;;;28.34;32.52;99695.87;1664456;86;20120;-71
2022/08/08 12:24:59;;;;;;;;;;;;;;;28.16;32.97;99700.06;1648094;86;20094;-71
2022/08/08 12:27:37;;;;;;;;;;;;;;;28.10;33.02;99698.47;1655490;86;20102;-71
2022/08/08 12:30:04;;;;;;;;;;;;;;;28.10;33.30;99695.73;1654109;86;21162;-72
2022/08/08 12:32:42;;;;;;;;;;;;;;;28.18;33.12;99694.33;1664561;86;20120;-71
2022/08/08 12:35:20;;;;;;;;;;;;;;;28.12;32.94;99698.17;1664422;86;20156;-71
2022/08/08 12:38:06;;;;;;;;;;;;;;;28.00;33.26;99695.71;1659559;85;20146;-71
2022/08/08 12:40:46;;;;;;;;;;;;;;;28.02;33.29;99707.24;1664712;86;20452;-72
2022/08/08 12:43:13;;;;;;;;;;;;;;;28.09;32.96;99708.30;1661077;86;21831;-71
2022/08/08 12:45:41;;;;;;;;;;;;;;;28.15;32.47;99702.55;1657202;86;20131;-72
2022/08/08 12:48:19;;;;;;;;;;;;;;;28.18;32.48;99708.55;1664482;85;20116;-74
2022/08/08 12:50:53;;;;;;;;;;;;;;;28.26;32.53;99702.50;1664525;86;20100;-72
2022/08/08 12:53:23;;;;;;;;;;;;;;;28.41;32.32;99700.52;1664500;85;20459;-72
2022/08/08 12:56:01;;;;;;;;;;;;;;;28.50;32.28;99702.09;1648931;86;21971;-73
2022/08/08 12:58:29;;;;;;;;;;;;;;;28.59;32.30;99701.78;1664466;86;20418;-72
2022/08/08 13:00:55;;;;;;;;;;;;;;;28.60;32.45;99711.06;1664416;85;20474;-74
2022/08/08 13:03:28;;;;;;;;;;;;;;;28.60;32.70;99708.33;1641731;86;20139;-72
2022/08/08 13:06:11;;;;;;;;;;;;;;;28.64;32.89;99701.78;1645220;86;20166;-73
2022/08/08 13:08:40;;;;;;;;;;;;;;;28.59;32.59;99695.77;1676600;84;21165;-69
2022/08/08 13:11:24;;;;;;;;;;;;;;;28.50;32.82;99702.91;1681989;84;20129;-72
2022/08/08 13:14:00;;;;;;;;;;;;;;;28.44;32.73;99703.23;1690994;84;20087;-71
2022/08/08 13:16:28;;;;;;;;;;;;;;;28.37;32.81;99702.70;1680758;83;20098;-73
2022/08/08 13:18:55;;;;;;;;;;;;;;;28.33;32.97;99702.47;1674975;84;20118;-72
2022/08/08 13:21:21;;;;;;;;;;;;;;;28.33;32.90;99701.64;1677968;84;21819;-73
2022/08/08 13:23:48;;;;;;;;;;;;;;;28.35;33.44;99696.70;1685677;83;20114;-73
2022/08/08 13:26:14;;;;;;;;;;;;;;;28.43;32.81;99701.59;1679547;84;20172;-74
2022/08/08 13:28:42;;;;;;;;;;;;;;;28.37;32.52;99693.12;1688622;84;20268;-71
2022/08/08 13:31:10;;;;;;;;;;;;;;;28.29;32.15;99700.58;1690216;84;20113;-72